Time;durP1;ratioP1;P1;durP2;ratioP2;P2;SDS_P1;SDS_P2;PMS_P1;PMS_P2;Temp;Humidity;BMP_temperature;BMP_pressure;BME280_temperature;BME280_humidity;BME280_pressure;Samples;Min_cycle;Max_cycle;Signal;HPM_P1;HPM_P2
2022/10/07 00:03:24;;;;;;;30.63;23.88;;;;;;;;;;10108900;28;20053;-66
2022/10/07 00:08:19;;;;;;;30.48;26.50;;;;;;;;;;10101278;28;20068;-67
2022/10/07 00:13:13;;;;;;;34.13;27.15;;;;;;;;;;10101643;28;20118;-65
2022/10/07 00:18:07;;;;;;;31.52;26.90;;;;;;;;;;10101000;28;20056;-65
2022/10/07 00:23:01;;;;;;;30.63;27.35;;;;;;;;;;10107947;28;20144;-64
2022/10/07 00:27:55;;;;;;;30.73;25.42;;;;;;;;;;10107184;28;20065;-65
2022/10/07 00:32:50;;;;;;;33.40;26.83;;;;;;;;;;10097660;28;20055;-65
2022/10/07 00:37:46;;;;;;;36.13;29.00;;;;;;;;;;10120401;28;20183;-65
2022/10/07 00:42:40;;;;;;;36.60;27.83;;;;;;;;;;10102541;28;20060;-67
2022/10/07 00:47:34;;;;;;;40.38;31.15;;;;;;;;;;10096009;28;20480;-67
2022/10/07 00:52:29;;;;;;;34.78;29.05;;;;;;;;;;10103968;28;20049;-67
2022/10/07 00:57:24;;;;;;;31.77;28.33;;;;;;;;;;10088657;28;20483;-67
2022/10/07 01:02:17;;;;;;;35.75;29.45;;;;;;;;;;10102347;28;20049;-66
2022/10/07 01:07:17;;;;;;;31.90;28.42;;;;;;;;;;10103192;28;20045;-67
2022/10/07 01:12:29;;;;;;;35.92;29.83;;;;;;;;;;10096550;28;20051;-67
2022/10/07 01:17:35;;;;;;;44.85;28.67;;;;;;;;;;10098029;28;20055;-67
2022/10/07 01:22:37;;;;;;;35.95;30.80;;;;;;;;;;10098328;28;20045;-66
2022/10/07 01:27:31;;;;;;;44.55;35.35;;;;;;;;;;10105863;28;20049;-66
2022/10/07 01:32:35;;;;;;;39.38;34.97;;;;;;;;;;10104345;28;20057;-66
2022/10/07 01:37:34;;;;;;;43.40;34.13;;;;;;;;;;10106624;28;20443;-66
2022/10/07 01:42:27;;;;;;;;;;;;;;;;;;10110296;28;20049;-66
2022/10/07 01:47:21;;;;;;;44.38;35.65;;;;;;;;;;10112345;28;19998;-65
2022/10/07 01:52:32;;;;;;;46.17;33.42;;;;;;;;;;10111041;28;20041;-66
2022/10/07 01:57:53;;;;;;;43.22;32.92;;;;;;;;;;10104889;28;20554;-66
2022/10/07 02:03:16;;;;;;;38.03;32.97;;;;;;;;;;10109875;28;20047;-65
2022/10/07 02:08:41;;;;;;;37.97;31.00;;;;;;;;;;10107282;28;20053;-65
2022/10/07 02:14:00;;;;;;;36.65;30.70;;;;;;;;;;10110665;28;20564;-65
2022/10/07 02:18:58;;;;;;;38.88;30.98;;;;;;;;;;10076267;28;20569;-65
2022/10/07 02:23:53;;;;;;;38.50;33.22;;;;;;;;;;10109327;28;20152;-65
2022/10/07 02:28:51;;;;;;;41.53;32.97;;;;;;;;;;10075119;28;20057;-65
2022/10/07 02:33:46;;;;;;;40.15;30.45;;;;;;;;;;10125870;28;20472;-65
2022/10/07 02:38:40;;;;;;;43.08;31.23;;;;;;;;;;10110254;28;20065;-67
2022/10/07 02:43:40;;;;;;;38.25;32.70;;;;;;;;;;10094071;28;20056;-67
2022/10/07 02:48:58;;;;;;;38.42;29.80;;;;;;;;;;10103990;28;20045;-65
2022/10/07 02:53:52;;;;;;;34.67;28.77;;;;;;;;;;10086373;28;20075;-64
2022/10/07 02:58:48;;;;;;;33.88;28.45;;;;;;;;;;10105588;28;20135;-65
2022/10/07 03:03:42;;;;;;;31.95;27.63;;;;;;;;;;10111248;28;20488;-64
2022/10/07 03:08:36;;;;;;;29.95;26.45;;;;;;;;;;10104069;28;20064;-66
2022/10/07 03:13:34;;;;;;;37.60;27.10;;;;;;;;;;10109982;28;20049;-66
2022/10/07 03:18:28;;;;;;;32.10;26.10;;;;;;;;;;10121070;28;20057;-66
2022/10/07 03:23:51;;;;;;;32.83;25.60;;;;;;;;;;10105019;28;20553;-66
2022/10/07 03:28:48;;;;;;;36.15;26.35;;;;;;;;;;10102072;28;20048;-66
2022/10/07 03:33:44;;;;;;;34.90;27.40;;;;;;;;;;10108663;28;20076;-66
2022/10/07 03:38:38;;;;;;;35.75;26.52;;;;;;;;;;10107131;28;20057;-66
2022/10/07 03:43:34;;;;;;;35.28;26.00;;;;;;;;;;10101929;28;20056;-66
2022/10/07 03:48:30;;;;;;;33.38;27.10;;;;;;;;;;10108681;28;20053;-66
2022/10/07 03:53:28;;;;;;;34.00;27.98;;;;;;;;;;10103128;28;20048;-66
2022/10/07 03:58:24;;;;;;;39.15;30.08;;;;;;;;;;10107441;28;20048;-66
2022/10/07 04:03:18;;;;;;;32.50;28.42;;;;;;;;;;10100035;28;20053;-66
2022/10/07 04:08:16;;;;;;;32.53;27.90;;;;;;;;;;10099571;28;20068;-66
2022/10/07 04:13:10;;;;;;;35.92;28.63;;;;;;;;;;10106913;28;20178;-66
2022/10/07 04:18:06;;;;;;;35.78;29.50;;;;;;;;;;10102963;28;20474;-66
2022/10/07 04:22:59;;;;;;;32.33;28.95;;;;;;;;;;10107210;28;20054;-66
2022/10/07 04:27:57;;;;;;;35.65;29.75;;;;;;;;;;10095980;28;20132;-66
2022/10/07 04:32:52;;;;;;;37.10;29.98;;;;;;;;;;10107049;28;20056;-66
2022/10/07 04:37:50;;;;;;;30.70;27.35;;;;;;;;;;10106547;28;20045;-66
2022/10/07 04:47:56;;;;;;;33.10;28.38;;;;;;;;;;10091585;28;20057;-66
2022/10/07 04:52:50;;;;;;;35.67;27.55;;;;;;;;;;10094674;28;20050;-66
2022/10/07 04:57:44;;;;;;;29.75;25.92;;;;;;;;;;10095423;28;20079;-67
2022/10/07 05:02:39;;;;;;;33.60;26.50;;;;;;;;;;10100733;28;20079;-67
2022/10/07 05:07:33;;;;;;;32.72;26.42;;;;;;;;;;10096969;28;20076;-67
2022/10/07 05:12:27;;;;;;;33.15;29.20;;;;;;;;;;10091790;28;20063;-67
2022/10/07 05:17:22;;;;;;;30.60;27.30;;;;;;;;;;10098598;28;20056;-67
2022/10/07 05:22:16;;;;;;;35.45;27.83;;;;;;;;;;10110500;28;20045;-67
2022/10/07 05:27:13;;;;;;;25.23;22.48;;;;;;;;;;10099606;28;20051;-68
2022/10/07 05:32:08;;;;;;;31.67;25.15;;;;;;;;;;10098526;28;20053;-68
2022/10/07 05:37:02;;;;;;;36.78;28.20;;;;;;;;;;10096253;28;20049;-68
2022/10/07 05:41:56;;;;;;;41.35;30.35;;;;;;;;;;10098926;28;20045;-67
2022/10/07 05:46:55;;;;;;;37.58;29.83;;;;;;;;;;10101987;28;20083;-68
2022/10/07 05:51:48;;;;;;;37.95;30.80;;;;;;;;;;10097685;28;20065;-67
2022/10/07 05:56:41;;;;;;;35.60;29.42;;;;;;;;;;10097727;28;20041;-68
2022/10/07 06:01:35;;;;;;;42.75;31.35;;;;;;;;;;10103879;28;20043;-67
2022/10/07 06:06:35;;;;;;;42.38;31.88;;;;;;;;;;10111427;28;20514;-68
2022/10/07 06:16:45;;;;;;;41.20;29.80;;;;;;;;;;10099345;28;20061;-67
2022/10/07 06:21:38;;;;;;;35.60;27.70;;;;;;;;;;10107061;28;20064;-68
2022/10/07 06:26:33;;;;;;;41.95;30.88;;;;;;;;;;10106837;28;20041;-67
2022/10/07 06:31:27;;;;;;;37.50;28.15;;;;;;;;;;10101355;28;20547;-66
2022/10/07 06:36:26;;;;;;;34.88;28.75;;;;;;;;;;10102470;28;20060;-67
2022/10/07 06:41:22;;;;;;;39.90;30.38;;;;;;;;;;10102095;28;20053;-66
2022/10/07 06:46:28;;;;;;;38.22;28.90;;;;;;;;;;10106454;28;20048;-67
2022/10/07 06:51:22;;;;;;;44.95;30.30;;;;;;;;;;10105369;28;20480;-66
2022/10/07 06:56:15;;;;;;;45.90;31.98;;;;;;;;;;10101133;28;20132;-66
2022/10/07 07:01:08;;;;;;;40.45;30.90;;;;;;;;;;10090651;28;20163;-66
2022/10/07 07:06:03;;;;;;;43.20;32.15;;;;;;;;;;10092984;28;20048;-66
2022/10/07 07:11:34;;;;;;;41.38;29.45;;;;;;;;;;10101083;28;20049;-67
2022/10/07 07:16:25;;;;;;;41.22;29.83;;;;;;;;;;10099377;28;20080;-66
2022/10/07 07:21:19;;;;;;;35.35;29.05;;;;;;;;;;10095662;28;20497;-66
2022/10/07 07:26:13;;;;;;;33.47;27.60;;;;;;;;;;10101783;28;20048;-66
2022/10/07 07:31:09;;;;;;;35.92;30.67;;;;;;;;;;10093114;28;20454;-65
2022/10/07 07:36:23;;;;;;;33.72;29.30;;;;;;;;;;10107419;28;20088;-66
2022/10/07 07:41:20;;;;;;;34.10;30.85;;;;;;;;;;10097180;28;20073;-66
2022/10/07 07:46:13;;;;;;;31.73;28.23;;;;;;;;;;10104837;28;20060;-66
2022/10/07 07:51:07;;;;;;;32.90;29.38;;;;;;;;;;10100980;28;20408;-66
2022/10/07 07:56:02;;;;;;;33.30;29.08;;;;;;;;;;10100642;28;20044;-66
2022/10/07 08:01:25;;;;;;;32.67;28.13;;;;;;;;;;10100978;28;20056;-67
2022/10/07 08:06:20;;;;;;;31.27;27.67;;;;;;;;;;10100565;28;20055;-67
2022/10/07 08:11:16;;;;;;;30.80;27.67;;;;;;;;;;10092368;28;20102;-67
2022/10/07 08:16:13;;;;;;;30.30;27.17;;;;;;;;;;10106177;28;20108;-67
2022/10/07 08:21:09;;;;;;;31.17;28.13;;;;;;;;;;10099481;28;20103;-68
2022/10/07 08:26:04;;;;;;;28.58;25.55;;;;;;;;;;10088238;28;20076;-68
2022/10/07 08:31:26;;;;;;;30.33;27.45;;;;;;;;;;10101274;28;20048;-68
2022/10/07 08:36:21;;;;;;;29.88;26.88;;;;;;;;;;10091241;28;20416;-67
2022/10/07 08:41:32;;;;;;;27.92;25.00;;;;;;;;;;10093342;28;20107;-68
2022/10/07 08:46:53;;;;;;;24.95;22.50;;;;;;;;;;10100779;28;20499;-67
2022/10/07 08:52:15;;;;;;;26.45;22.15;;;;;;;;;;10101193;28;20037;-67
2022/10/07 08:57:21;;;;;;;31.25;23.90;;;;;;;;;;10097897;28;20076;-68
2022/10/07 09:02:26;;;;;;;26.85;23.83;;;;;;;;;;10098762;28;20045;-67
2022/10/07 09:07:31;;;;;;;25.33;22.67;;;;;;;;;;10102257;28;20455;-68
2022/10/07 09:12:41;;;;;;;24.98;22.58;;;;;;;;;;10100577;28;20411;-68
2022/10/07 09:17:38;;;;;;;28.35;22.60;;;;;;;;;;10096901;28;20110;-68
2022/10/07 09:22:37;;;;;;;25.67;23.08;;;;;;;;;;10111104;28;20099;-68
2022/10/07 09:27:32;;;;;;;24.55;21.90;;;;;;;;;;10096557;28;20114;-68
2022/10/07 09:32:25;;;;;;;23.10;21.00;;;;;;;;;;10090969;28;20087;-68
2022/10/07 09:37:21;;;;;;;24.65;22.13;;;;;;;;;;10084373;28;20065;-68
2022/10/07 09:42:28;;;;;;;24.30;21.42;;;;;;;;;;10099413;28;20071;-68
2022/10/07 09:47:25;;;;;;;23.90;19.48;;;;;;;;;;10090045;28;20045;-68
2022/10/07 09:52:22;;;;;;;22.67;20.48;;;;;;;;;;10088736;28;20060;-67
2022/10/07 09:57:29;;;;;;;22.23;20.00;;;;;;;;;;10095238;28;20045;-67
2022/10/07 10:02:25;;;;;;;20.13;18.17;;;;;;;;;;10103524;28;20072;-67
2022/10/07 10:07:36;;;;;;;19.27;17.35;;;;;;;;;;10099862;28;20477;-68
2022/10/07 10:12:33;;;;;;;18.50;16.67;;;;;;;;;;10100520;28;20057;-68
2022/10/07 10:17:36;;;;;;;19.45;16.48;;;;;;;;;;10088500;28;20042;-67
2022/10/07 10:22:30;;;;;;;16.98;13.73;;;;;;;;;;10096267;28;20114;-66
2022/10/07 10:27:33;;;;;;;17.17;15.52;;;;;;;;;;10095108;28;20053;-66
2022/10/07 10:32:39;;;;;;;14.98;13.57;;;;;;;;;;10095709;28;20063;-66
2022/10/07 10:38:03;;;;;;;17.58;15.77;;;;;;;;;;10099659;28;20052;-66
2022/10/07 10:43:24;;;;;;;16.20;14.57;;;;;;;;;;10107355;28;20112;-67
2022/10/07 10:48:34;;;;;;;16.70;13.18;;;;;;;;;;10105790;28;20053;-67
2022/10/07 10:53:29;;;;;;;15.82;9.60;;;;;;;;;;10104464;28;20056;-67
2022/10/07 10:58:43;;;;;;;15.05;11.20;;;;;;;;;;10102729;28;20053;-67
2022/10/07 11:03:50;;;;;;;8.50;6.07;;;;;;;;;;10105151;28;20127;-67
2022/10/07 11:08:46;;;;;;;13.48;7.40;;;;;;;;;;10103476;28;20045;-67
2022/10/07 11:13:47;;;;;;;11.55;10.40;;;;;;;;;;10105284;28;20135;-67
2022/10/07 11:18:44;;;;;;;16.63;9.30;;;;;;;;;;10104168;28;20045;-67
2022/10/07 11:24:02;;;;;;;12.20;7.05;;;;;;;;;;10111075;28;20098;-67
2022/10/07 11:29:17;;;;;;;7.78;5.65;;;;;;;;;;10117541;28;20052;-66
2022/10/07 11:34:19;;;;;;;7.60;6.80;;;;;;;;;;10104567;28;20072;-67
2022/10/07 11:39:13;;;;;;;9.10;8.23;;;;;;;;;;10102796;28;20064;-67
2022/10/07 11:44:15;;;;;;;11.88;8.15;;;;;;;;;;10097623;28;20400;-64
2022/10/07 11:49:34;;;;;;;11.55;8.02;;;;;;;;;;10100992;28;20110;-65
2022/10/07 11:54:29;;;;;;;15.02;9.57;;;;;;;;;;10111577;28;20466;-68
2022/10/07 11:59:59;;;;;;;15.25;11.23;;;;;;;;;;10098189;28;20435;-68
2022/10/07 12:04:56;;;;;;;17.38;11.80;;;;;;;;;;10098408;28;20045;-70
2022/10/07 12:10:04;;;;;;;16.33;11.73;;;;;;;;;;10093692;28;20052;-68
2022/10/07 12:15:02;;;;;;;17.30;9.70;;;;;;;;;;10093810;28;20049;-68
2022/10/07 12:20:45;;;;;;;12.57;9.52;;;;;;;;;;10099738;28;20038;-68
2022/10/07 12:25:43;;;;;;;13.68;8.65;;;;;;;;;;10072352;28;20051;-68
2022/10/07 12:30:41;;;;;;;12.05;9.20;;;;;;;;;;10093774;28;20049;-68
2022/10/07 12:35:44;;;;;;;11.18;9.90;;;;;;;;;;10094275;28;20384;-67
2022/10/07 12:40:49;;;;;;;13.85;9.70;;;;;;;;;;10094491;28;20123;-68
2022/10/07 12:45:43;;;;;;;14.38;9.50;;;;;;;;;;10089726;28;20055;-68
2022/10/07 12:50:39;;;;;;;13.90;10.00;;;;;;;;;;10097185;28;20122;-67
2022/10/07 12:55:36;;;;;;;12.52;9.88;;;;;;;;;;10102782;28;20500;-67
2022/10/07 13:00:32;;;;;;;10.30;9.07;;;;;;;;;;10112816;28;20064;-66
2022/10/07 13:06:09;;;;;;;15.07;9.30;;;;;;;;;;10118415;28;20053;-70
2022/10/07 13:11:14;;;;;;;10.40;9.30;;;;;;;;;;10121885;28;20499;-70
2022/10/07 13:16:18;;;;;;;10.52;9.00;;;;;;;;;;10128738;28;20056;-70
2022/10/07 13:21:18;;;;;;;15.10;10.65;;;;;;;;;;10121777;28;20056;-73
2022/10/07 13:26:14;;;;;;;9.70;7.55;;;;;;;;;;10108440;28;20045;-73
2022/10/07 13:31:20;;;;;;;13.93;8.80;;;;;;;;;;10105426;28;20049;-72
2022/10/07 13:36:27;;;;;;;12.30;7.88;;;;;;;;;;10114521;28;20064;-70
2022/10/07 13:41:28;;;;;;;11.13;8.38;;;;;;;;;;10122859;28;20063;-72
2022/10/07 13:46:25;;;;;;;16.45;10.20;;;;;;;;;;10116304;28;20510;-72
2022/10/07 13:51:41;;;;;;;11.13;7.60;;;;;;;;;;10112222;28;20056;-71
2022/10/07 13:56:39;;;;;;;15.70;8.93;;;;;;;;;;10108197;28;20053;-71
2022/10/07 14:01:36;;;;;;;17.67;8.98;;;;;;;;;;10115076;28;20492;-72
2022/10/07 14:06:59;;;;;;;16.48;9.68;;;;;;;;;;10118745;28;20575;-71
2022/10/07 14:11:55;;;;;;;8.52;7.68;;;;;;;;;;10114164;28;20057;-71
2022/10/07 14:16:55;;;;;;;14.88;10.35;;;;;;;;;;10127292;28;20053;-71
2022/10/07 14:21:49;;;;;;;12.73;9.65;;;;;;;;;;10119494;28;20049;-71
2022/10/07 14:26:45;;;;;;;11.25;7.97;;;;;;;;;;10119319;28;20477;-71
2022/10/07 14:37:13;;;;;;;14.95;8.32;;;;;;;;;;10127687;28;20071;-72
2022/10/07 14:42:12;;;;;;;11.98;9.13;;;;;;;;;;10115226;28;20057;-73
2022/10/07 14:47:23;;;;;;;11.10;8.65;;;;;;;;;;10121052;28;20072;-74
2022/10/07 14:52:21;;;;;;;17.55;10.55;;;;;;;;;;10127006;28;20052;-73
2022/10/07 14:57:17;;;;;;;13.88;8.15;;;;;;;;;;10115361;28;20137;-66
2022/10/07 15:02:14;;;;;;;16.30;8.98;;;;;;;;;;10125358;28;20414;-65
2022/10/07 15:07:08;;;;;;;17.10;9.73;;;;;;;;;;10125123;28;20203;-66
2022/10/07 15:12:03;;;;;;;11.77;9.25;;;;;;;;;;10131139;28;20419;-66
2022/10/07 15:16:57;;;;;;;19.65;10.82;;;;;;;;;;10112831;28;20076;-66
2022/10/07 15:21:52;;;;;;;14.35;10.13;;;;;;;;;;10120840;28;20126;-66
2022/10/07 15:26:46;;;;;;;10.93;8.65;;;;;;;;;;10110563;28;20057;-66
2022/10/07 15:31:41;;;;;;;12.80;9.32;;;;;;;;;;10114611;28;20110;-66
2022/10/07 15:36:35;;;;;;;15.57;11.15;;;;;;;;;;10123935;28;20069;-66
2022/10/07 15:41:36;;;;;;;15.05;9.43;;;;;;;;;;10116457;28;20056;-66
2022/10/07 15:46:30;;;;;;;15.85;9.43;;;;;;;;;;10121063;28;20063;-66
2022/10/07 15:51:25;;;;;;;12.25;8.82;;;;;;;;;;10117529;28;20057;-65
2022/10/07 15:56:19;;;;;;;14.70;10.43;;;;;;;;;;10088230;28;20052;-65
2022/10/07 16:01:14;;;;;;;15.85;10.45;;;;;;;;;;10103891;28;20124;-65
2022/10/07 16:06:10;;;;;;;15.93;9.65;;;;;;;;;;10108842;28;20136;-67
2022/10/07 16:11:06;;;;;;;10.55;8.57;;;;;;;;;;10104178;28;20045;-65
2022/10/07 16:16:02;;;;;;;13.02;9.05;;;;;;;;;;10105183;28;20065;-65
2022/10/07 16:21:30;;;;;;;17.33;8.45;;;;;;;;;;10089781;28;20125;-64
2022/10/07 16:26:28;;;;;;;17.83;10.07;;;;;;;;;;10105302;28;20052;-64
2022/10/07 16:31:22;;;;;;;13.52;8.48;;;;;;;;;;10106163;28;20506;-64
2022/10/07 16:36:16;;;;;;;14.52;8.55;;;;;;;;;;10089986;28;20049;-64
2022/10/07 16:41:09;;;;;;;12.35;8.48;;;;;;;;;;10100162;28;20136;-64
2022/10/07 16:46:06;;;;;;;13.80;9.10;;;;;;;;;;10097364;28;20384;-64
2022/10/07 16:51:00;;;;;;;9.68;7.95;;;;;;;;;;10102716;28;20049;-64
2022/10/07 16:55:54;;;;;;;12.80;9.25;;;;;;;;;;10096488;28;20053;-64
2022/10/07 17:00:48;;;;;;;9.05;8.15;;;;;;;;;;10100109;28;20049;-66
2022/10/07 17:05:42;;;;;;;12.02;9.35;;;;;;;;;;10095103;28;20389;-66
2022/10/07 17:10:35;;;;;;;17.08;12.10;;;;;;;;;;10102586;28;20114;-65
2022/10/07 17:15:30;;;;;;;13.60;11.20;;;;;;;;;;10090942;28;20057;-64
2022/10/07 17:20:25;;;;;;;14.07;11.35;;;;;;;;;;10105793;28;20048;-66
2022/10/07 17:25:20;;;;;;;12.88;10.68;;;;;;;;;;10093804;28;20095;-63
2022/10/07 17:30:15;;;;;;;14.60;9.95;;;;;;;;;;10100697;28;20066;-63
2022/10/07 17:35:09;;;;;;;16.50;11.02;;;;;;;;;;10100449;28;20470;-64
2022/10/07 17:40:03;;;;;;;18.20;10.75;;;;;;;;;;10091499;28;20053;-63
2022/10/07 17:44:59;;;;;;;14.38;11.43;;;;;;;;;;10095118;28;20049;-63
2022/10/07 17:49:53;;;;;;;13.00;10.13;;;;;;;;;;10105978;28;20044;-64
2022/10/07 17:54:48;;;;;;;21.65;10.45;;;;;;;;;;10105547;28;20049;-64
2022/10/07 17:59:43;;;;;;;14.52;11.25;;;;;;;;;;10104635;28;20400;-64
2022/10/07 18:04:37;;;;;;;18.83;10.68;;;;;;;;;;10098607;28;20045;-65
2022/10/07 18:09:32;;;;;;;16.85;9.88;;;;;;;;;;10102930;28;20144;-65
2022/10/07 18:19:43;;;;;;;24.48;11.05;;;;;;;;;;10095067;28;20055;-66
2022/10/07 18:24:36;;;;;;;15.50;10.10;;;;;;;;;;10101170;28;20043;-65
2022/10/07 18:29:37;;;;;;;15.05;10.38;;;;;;;;;;10110936;28;20033;-66
2022/10/07 18:34:31;;;;;;;18.38;11.63;;;;;;;;;;10099645;28;20057;-66
2022/10/07 18:39:28;;;;;;;21.20;10.43;;;;;;;;;;10104933;28;20048;-65
2022/10/07 18:44:22;;;;;;;13.07;8.13;;;;;;;;;;10105028;28;20057;-66
2022/10/07 18:49:16;;;;;;;15.15;8.48;;;;;;;;;;10098643;28;20143;-66
2022/10/07 18:54:11;;;;;;;12.85;10.55;;;;;;;;;;10112328;28;20404;-68
2022/10/07 18:59:11;;;;;;;21.17;11.80;;;;;;;;;;10111332;28;20076;-69
2022/10/07 19:04:06;;;;;;;16.13;12.05;;;;;;;;;;10105562;28;20120;-69
2022/10/07 19:09:01;;;;;;;24.63;11.23;;;;;;;;;;10117057;28;20455;-69
2022/10/07 19:13:57;;;;;;;32.70;11.75;;;;;;;;;;10114943;28;20172;-70
2022/10/07 19:18:52;;;;;;;15.75;10.85;;;;;;;;;;10115354;28;20056;-70
2022/10/07 19:23:49;;;;;;;18.23;10.48;;;;;;;;;;10119174;28;20079;-69
2022/10/07 19:28:45;;;;;;;10.60;9.57;;;;;;;;;;10114014;28;20128;-70
2022/10/07 19:33:38;;;;;;;19.08;11.95;;;;;;;;;;10125221;28;20522;-68
2022/10/07 19:38:32;;;;;;;20.30;13.23;;;;;;;;;;10124091;28;20099;-70
2022/10/07 19:43:26;;;;;;;18.50;12.70;;;;;;;;;;10115326;28;20057;-74
2022/10/07 19:48:21;;;;;;;13.50;12.10;;;;;;;;;;10122466;28;20053;-72
2022/10/07 19:53:15;;;;;;;17.83;12.15;;;;;;;;;;10109673;28;20072;-74
2022/10/07 19:58:09;;;;;;;20.00;13.75;;;;;;;;;;10106161;28;20037;-75
2022/10/07 20:03:02;;;;;;;17.33;12.55;;;;;;;;;;10108200;28;20121;-71
2022/10/07 20:07:57;;;;;;;14.48;11.90;;;;;;;;;;10114857;28;20526;-71
2022/10/07 20:12:52;;;;;;;14.73;13.00;;;;;;;;;;10111960;28;20053;-72
2022/10/07 20:17:48;;;;;;;22.00;12.85;;;;;;;;;;10111871;28;20408;-73
2022/10/07 20:22:42;;;;;;;22.35;11.30;;;;;;;;;;10113014;28;20079;-72
2022/10/07 20:27:41;;;;;;;14.85;11.30;;;;;;;;;;10110970;28;20499;-74
2022/10/07 20:32:38;;;;;;;18.55;11.57;;;;;;;;;;10126246;28;20049;-73
2022/10/07 20:37:35;;;;;;;;;;;;;;;;;;10120251;28;20056;-69
2022/10/07 20:42:36;;;;;;;14.68;11.77;;;;;;;;;;10117588;28;19935;-67
2022/10/07 20:47:40;;;;;;;14.27;12.88;;;;;;;;;;10119728;28;20045;-72
2022/10/07 20:52:39;;;;;;;17.48;13.70;;;;;;;;;;10111432;28;20048;-70
2022/10/07 20:57:37;;;;;;;18.73;14.43;;;;;;;;;;10109281;28;20049;-71
2022/10/07 21:02:36;;;;;;;23.05;15.15;;;;;;;;;;10099506;28;20041;-72
2022/10/07 21:07:36;;;;;;;15.57;13.95;;;;;;;;;;10112018;28;20044;-75
2022/10/07 21:12:35;;;;;;;17.63;14.83;;;;;;;;;;10117102;28;20077;-75
2022/10/07 21:17:35;;;;;;;17.90;13.07;;;;;;;;;;10115081;28;20053;-72
2022/10/07 21:22:35;;;;;;;19.88;14.02;;;;;;;;;;10104677;28;20068;-72
2022/10/07 21:27:36;;;;;;;18.60;15.80;;;;;;;;;;10102539;28;20037;-72
2022/10/07 21:32:35;;;;;;;18.02;16.13;;;;;;;;;;10109200;28;20086;-72
2022/10/07 21:37:34;;;;;;;21.40;16.92;;;;;;;;;;10124264;28;20053;-72
2022/10/07 21:42:31;;;;;;;23.60;17.40;;;;;;;;;;10112398;28;20044;-69
2022/10/07 21:47:34;;;;;;;23.08;17.20;;;;;;;;;;10106699;28;20045;-67
2022/10/07 21:52:31;;;;;;;27.23;18.67;;;;;;;;;;10115422;28;20048;-68
2022/10/07 21:57:31;;;;;;;40.05;19.40;;;;;;;;;;10124312;28;20048;-68
2022/10/07 22:02:27;;;;;;;;;;;;;;;;;;10123383;28;20048;-68
2022/10/07 22:12:45;;;;;;;17.95;15.98;;;;;;;;;;10115206;28;20128;-68
2022/10/07 22:17:49;;;;;;;19.05;16.65;;;;;;;;;;10125905;28;20060;-68
2022/10/07 22:22:49;;;;;;;19.83;17.80;;;;;;;;;;10117521;28;20960;-68
2022/10/07 22:27:56;;;;;;;18.63;15.80;;;;;;;;;;10126547;28;20041;-68
2022/10/07 22:33:01;;;;;;;18.70;16.70;;;;;;;;;;10116727;28;20053;-67
2022/10/07 22:38:02;;;;;;;20.83;18.83;;;;;;;;;;10120793;28;20051;-67
2022/10/07 22:43:01;;;;;;;20.50;18.35;;;;;;;;;;10116903;28;20041;-67
2022/10/07 22:48:06;;;;;;;23.95;18.80;;;;;;;;;;10124577;28;20132;-67
2022/10/07 22:53:02;;;;;;;;;;;;;;;;;;10114680;28;20170;-68
2022/10/07 22:58:01;;;;;;;19.67;17.02;;;;;;;;;;10119198;28;19955;-68
2022/10/07 23:02:58;;;;;;;17.88;16.02;;;;;;;;;;10123728;28;20045;-68
2022/10/07 23:07:53;;;;;;;18.77;16.58;;;;;;;;;;10109040;28;20074;-65
2022/10/07 23:12:47;;;;;;;20.10;18.00;;;;;;;;;;10118773;28;20048;-64
2022/10/07 23:17:41;;;;;;;21.40;17.13;;;;;;;;;;10111053;28;20080;-64
2022/10/07 23:22:38;;;;;;;20.05;17.80;;;;;;;;;;10126577;28;20075;-64
2022/10/07 23:27:32;;;;;;;19.48;17.15;;;;;;;;;;10113263;28;20132;-64
2022/10/07 23:32:26;;;;;;;23.17;18.30;;;;;;;;;;10122271;28;20044;-64
2022/10/07 23:37:20;;;;;;;25.13;17.05;;;;;;;;;;10123227;28;20102;-64
2022/10/07 23:42:14;;;;;;;25.02;19.13;;;;;;;;;;10112239;28;20102;-64
2022/10/07 23:47:08;;;;;;;20.88;18.10;;;;;;;;;;10117833;28;20049;-64
2022/10/07 23:52:02;;;;;;;22.60;18.45;;;;;;;;;;10109309;28;20044;-65
2022/10/07 23:56:55;;;;;;;19.10;16.88;;;;;;;;;;10121157;28;20162;-65
